createdAt,value
2019-03-27T00:00:50.179Z,72.02
2019-03-27T00:03:20.626Z,71.97
2019-03-27T00:05:51.465Z,71.85
2019-03-27T00:08:22.202Z,71.96
2019-03-27T00:10:52.727Z,71.85
2019-03-27T00:26:37.226Z,72.22
2019-03-27T00:29:07.905Z,72.23
2019-03-27T00:31:38.244Z,72.31
2019-03-27T00:34:08.727Z,72.31
2019-03-27T00:36:40.362Z,72.31
2019-03-27T00:39:11.329Z,72.43
2019-03-27T00:41:41.705Z,72.56
2019-03-27T00:44:12.334Z,72.69
2019-03-27T00:46:42.965Z,72.90
2019-03-27T00:49:13.342Z,72.52
2019-03-27T00:51:44.310Z,73.01
2019-03-27T00:54:14.863Z,72.81
2019-03-27T00:56:45.475Z,72.90
2019-03-27T00:59:19.105Z,72.90
2019-03-27T01:01:48.271Z,73.00
2019-03-27T01:04:19.064Z,73.00
2019-03-27T01:06:51.134Z,73.17
2019-03-27T01:09:22.065Z,73.06
2019-03-27T01:11:52.682Z,73.23
2019-03-27T01:14:23.173Z,73.54
2019-03-27T01:16:53.805Z,73.34
2019-03-27T01:19:24.290Z,73.18
2019-03-27T01:21:55.259Z,73.49
2019-03-27T01:24:25.657Z,74.29
2019-03-27T01:26:56.302Z,75.04
2019-03-27T01:29:27.103Z,75.14
2019-03-27T01:31:57.700Z,75.15
2019-03-27T01:34:28.275Z,74.67
2019-03-27T01:36:58.604Z,74.79
2019-03-27T01:39:29.058Z,74.90
2019-03-27T01:41:59.819Z,75.22
2019-03-27T01:44:30.923Z,75.04
2019-03-27T01:47:01.302Z,75.10
2019-03-27T01:49:31.833Z,75.08
2019-03-27T01:52:02.208Z,75.40
2019-03-27T01:54:32.848Z,76.04
2019-03-27T01:57:04.448Z,75.88
2019-03-27T01:59:34.918Z,76.20
2019-03-27T02:02:05.274Z,76.44
2019-03-27T02:04:35.832Z,76.06
2019-03-27T02:07:06.796Z,75.87
2019-03-27T02:09:39.141Z,75.77
2019-03-27T02:12:09.784Z,75.56
2019-03-27T02:14:40.586Z,75.69
2019-03-27T02:17:11.105Z,75.73
2019-03-27T02:19:41.462Z,75.76
2019-03-27T02:22:12.261Z,76.11
2019-03-27T02:24:42.847Z,75.66
2019-03-27T02:27:13.485Z,75.87
2019-03-27T02:29:43.851Z,76.06
2019-03-27T02:32:14.260Z,76.32
2019-03-27T02:34:44.637Z,76.19
2019-03-27T02:37:15.797Z,75.91
2019-03-27T02:39:46.306Z,75.84
2019-03-27T02:42:16.660Z,75.41
2019-03-27T02:44:47.369Z,75.86
2019-03-27T02:47:18.006Z,76.15
2019-03-27T02:49:48.344Z,76.33
2019-03-27T02:52:18.752Z,76.44
2019-03-27T02:54:49.298Z,76.37
2019-03-27T02:57:19.744Z,76.60
2019-03-27T02:59:50.262Z,76.17
2019-03-27T03:02:20.874Z,76.18
2019-03-27T03:04:51.417Z,76.11
2019-03-27T03:07:22.091Z,76.32
2019-03-27T03:09:52.710Z,75.92
2019-03-27T03:12:23.235Z,75.85
2019-03-27T03:14:53.652Z,75.61
2019-03-27T03:17:24.028Z,75.95
2019-03-27T03:19:54.774Z,76.08
2019-03-27T03:22:25.193Z,76.70
2019-03-27T03:24:55.814Z,78.30
2019-03-27T03:27:26.344Z,78.52
2019-03-27T03:29:57.045Z,78.32
2019-03-27T03:32:27.538Z,78.24
2019-03-27T03:34:58.006Z,78.58
2019-03-27T03:37:28.467Z,79.08
2019-03-27T03:39:58.866Z,79.61
2019-03-27T03:42:29.933Z,80.09
2019-03-27T03:45:00.944Z,80.45
2019-03-27T03:47:32.488Z,80.78
2019-03-27T03:50:03.303Z,80.32
2019-03-27T03:52:33.858Z,80.14
2019-03-27T03:55:04.661Z,79.97
2019-03-27T03:57:36.650Z,80.08
2019-03-27T04:00:07.800Z,79.76
2019-03-27T04:02:39.049Z,79.62
2019-03-27T04:05:11.229Z,79.70
2019-03-27T04:07:41.796Z,79.46
2019-03-27T04:10:12.429Z,79.59
2019-03-27T04:12:42.802Z,79.54
2019-03-27T04:15:13.400Z,79.39
2019-03-27T04:17:44.018Z,79.81
2019-03-27T04:20:14.554Z,79.83
2019-03-27T04:22:45.267Z,79.73
2019-03-27T04:25:15.727Z,79.71
2019-03-27T04:27:46.261Z,79.61
2019-03-27T04:30:16.961Z,79.53
2019-03-27T04:32:47.391Z,79.43
2019-03-27T04:35:18.122Z,79.67
2019-03-27T04:37:48.739Z,79.95
2019-03-27T04:40:19.697Z,79.91
2019-03-27T04:42:50.200Z,80.22
2019-03-27T04:45:20.773Z,80.33
2019-03-27T04:47:51.249Z,80.42
2019-03-27T04:50:22.037Z,80.36
2019-03-27T04:52:52.494Z,80.44
2019-03-27T04:55:22.928Z,80.55
2019-03-27T04:57:53.628Z,80.43
2019-03-27T05:00:24.098Z,80.39
2019-03-27T05:02:54.441Z,80.44
2019-03-27T05:05:24.791Z,80.45
2019-03-27T05:07:55.284Z,80.51
2019-03-27T05:10:25.726Z,80.54
2019-03-27T05:12:56.239Z,80.40
2019-03-27T05:15:26.682Z,80.20
2019-03-27T05:17:57.303Z,80.12
2019-03-27T05:20:28.834Z,80.13
2019-03-27T05:22:59.308Z,80.41
2019-03-27T05:25:30.358Z,80.54
2019-03-27T05:28:00.728Z,80.62
2019-03-27T05:30:31.274Z,80.53
2019-03-27T05:33:02.221Z,80.10
2019-03-27T05:35:32.842Z,80.38
2019-03-27T05:39:48.213Z,80.26
2019-03-27T05:42:21.218Z,79.66
2019-03-27T05:44:53.429Z,79.32
2019-03-27T05:47:25.538Z,78.95
2019-03-27T05:49:57.745Z,78.49
2019-03-27T05:52:29.685Z,78.16
2019-03-27T05:55:01.603Z,77.53
2019-03-27T05:57:33.837Z,77.21
2019-03-27T06:00:06.298Z,76.71
2019-03-27T06:02:38.107Z,76.35
2019-03-27T06:05:10.241Z,75.89
2019-03-27T06:07:42.348Z,74.98
2019-03-27T06:10:16.371Z,75.01
2019-03-27T06:12:48.008Z,74.66
2019-03-27T06:15:20.529Z,74.69
2019-03-27T06:17:52.331Z,74.36
2019-03-27T06:20:24.290Z,73.59
2019-03-27T06:22:57.631Z,74.20
2019-03-27T06:25:29.569Z,73.99
2019-03-27T06:28:02.182Z,72.80
2019-03-27T06:30:34.072Z,71.86
2019-03-27T06:33:07.622Z,72.03
2019-03-27T06:35:39.982Z,67.74
2019-03-27T06:38:11.946Z,62.86
2019-03-27T06:40:44.031Z,61.22
2019-03-27T06:43:16.110Z,62.11
2019-03-27T06:45:48.208Z,61.29
2019-03-27T06:48:26.133Z,56.65
2019-03-27T06:50:53.780Z,53.98
2019-03-27T06:53:25.688Z,54.75
2019-03-27T06:55:57.607Z,57.16
2019-03-27T06:58:29.566Z,53.54
2019-03-27T07:01:01.487Z,49.99
2019-03-27T07:03:33.666Z,48.59
2019-03-27T07:06:05.782Z,48.91
2019-03-27T07:08:37.935Z,52.12
2019-03-27T07:11:10.018Z,52.38
2019-03-27T07:13:42.220Z,50.56
2019-03-27T07:16:14.420Z,51.00
2019-03-27T07:18:46.916Z,48.08
2019-03-27T07:21:18.989Z,49.00
2019-03-27T07:23:50.870Z,49.96
2019-03-27T07:26:23.219Z,45.79
2019-03-27T07:28:55.187Z,48.54
2019-03-27T07:31:28.380Z,52.01
2019-03-27T07:34:00.351Z,54.98
2019-03-27T07:36:32.298Z,57.58
2019-03-27T07:39:11.153Z,58.96
2019-03-27T07:41:39.391Z,57.79
2019-03-27T07:44:11.442Z,60.01
2019-03-27T07:46:43.721Z,58.02
2019-03-27T07:49:17.206Z,58.25
2019-03-27T07:51:49.213Z,58.17
2019-03-27T07:54:21.347Z,58.13
2019-03-27T07:56:53.487Z,56.32
2019-03-27T07:59:25.334Z,50.73
2019-03-27T08:04:27.534Z,46.65
2019-03-27T08:06:59.963Z,47.58
2019-03-27T08:09:32.044Z,46.18
2019-03-27T08:12:04.587Z,42.25
2019-03-27T08:14:36.868Z,43.51
2019-03-27T08:17:09.305Z,42.31
2019-03-27T08:19:41.345Z,41.75
2019-03-27T08:22:13.387Z,42.88
2019-03-27T08:24:45.491Z,42.81
2019-03-27T08:27:17.503Z,41.41
2019-03-27T08:29:49.764Z,42.87
2019-03-27T08:32:21.899Z,41.68
2019-03-27T08:34:54.213Z,41.22
2019-03-27T08:37:26.056Z,41.12
2019-03-27T08:39:58.181Z,41.60
2019-03-27T08:42:30.222Z,41.32
2019-03-27T08:45:03.815Z,39.21
2019-03-27T08:47:36.276Z,39.04
2019-03-27T08:50:09.939Z,39.04
2019-03-27T08:52:42.920Z,39.56
2019-03-27T08:55:15.381Z,40.06
2019-03-27T08:57:47.583Z,38.05
2019-03-27T09:00:24.292Z,39.79
2019-03-27T09:02:56.245Z,41.61
2019-03-27T09:05:28.126Z,40.18
2019-03-27T09:08:00.442Z,43.32
2019-03-27T09:10:32.526Z,41.06
2019-03-27T09:13:04.924Z,41.48
2019-03-27T09:15:37.200Z,41.46
2019-03-27T09:18:09.301Z,40.04
2019-03-27T09:20:41.294Z,40.04
2019-03-27T09:23:14.253Z,42.67
2019-03-27T09:25:46.224Z,43.28
2019-03-27T09:28:18.148Z,42.28
2019-03-27T09:30:50.137Z,42.37
2019-03-27T09:33:22.136Z,43.57
2019-03-27T09:35:54.259Z,43.72
2019-03-27T09:38:26.298Z,41.88
2019-03-27T09:40:58.353Z,41.28
2019-03-27T09:43:30.474Z,41.15
2019-03-27T09:46:02.367Z,39.70
2019-03-27T09:48:34.316Z,38.04
2019-03-27T09:51:06.258Z,37.61
2019-03-27T09:53:38.486Z,38.70
2019-03-27T09:56:19.051Z,37.28
2019-03-27T09:58:44.182Z,37.22
2019-03-27T10:01:16.003Z,33.56
2019-03-27T10:03:48.059Z,37.31
2019-03-27T10:06:20.130Z,38.94
2019-03-27T10:08:52.261Z,36.14
2019-03-27T10:11:24.178Z,36.24
2019-03-27T10:13:56.345Z,29.24
2019-03-27T10:16:28.424Z,32.02
2019-03-27T10:19:00.404Z,35.56
2019-03-27T10:21:32.455Z,30.35
2019-03-27T10:24:04.672Z,33.02
2019-03-27T10:26:36.627Z,33.02
2019-03-27T10:29:08.498Z,33.36
2019-03-27T10:31:40.407Z,30.80
2019-03-27T10:34:12.538Z,37.04
2019-03-27T10:36:45.318Z,32.46
2019-03-27T10:39:17.422Z,33.70
2019-03-27T10:41:49.551Z,31.97
2019-03-27T10:44:21.566Z,34.33
2019-03-27T10:46:53.749Z,33.17
2019-03-27T10:49:25.722Z,31.69
2019-03-27T10:51:57.825Z,32.96
2019-03-27T10:54:29.952Z,33.77
2019-03-27T10:57:02.244Z,31.31
2019-03-27T10:59:34.661Z,33.10
2019-03-27T11:02:07.714Z,32.26
2019-03-27T11:04:39.680Z,31.37
2019-03-27T11:07:11.642Z,31.61
2019-03-27T11:09:43.694Z,31.47
2019-03-27T11:12:15.890Z,31.29
2019-03-27T11:14:47.916Z,33.97
2019-03-27T11:17:19.940Z,32.79
2019-03-27T11:19:51.791Z,31.08
2019-03-27T11:22:23.636Z,32.31
2019-03-27T11:24:55.635Z,30.88
2019-03-27T11:27:27.593Z,33.77
2019-03-27T11:29:59.889Z,31.81
2019-03-27T11:32:31.952Z,31.22
2019-03-27T11:35:04.561Z,32.79
2019-03-27T11:37:37.809Z,30.27
2019-03-27T11:40:10.391Z,32.32
2019-03-27T11:42:42.475Z,34.67
2019-03-27T11:45:14.843Z,32.88
2019-03-27T11:47:46.882Z,35.10
2019-03-27T11:50:19.137Z,32.49
2019-03-27T11:52:51.152Z,31.67
2019-03-27T11:55:23.215Z,32.52
2019-03-27T11:57:55.196Z,32.19
2019-03-27T12:00:27.147Z,32.97
2019-03-27T12:02:59.360Z,33.22
2019-03-27T12:05:31.744Z,34.55
2019-03-27T12:08:04.976Z,32.94
2019-03-27T12:10:36.805Z,32.84
2019-03-27T12:13:09.706Z,33.71
2019-03-27T12:15:43.915Z,35.55
2019-03-27T12:18:17.125Z,36.81
2019-03-27T12:20:58.849Z,33.19
2019-03-27T12:23:23.262Z,33.71
2019-03-27T12:25:55.592Z,31.34
2019-03-27T12:28:28.613Z,30.43
2019-03-27T12:31:01.138Z,32.74
2019-03-27T12:33:33.265Z,33.30
2019-03-27T12:36:05.356Z,35.74
2019-03-27T12:38:37.402Z,36.72
2019-03-27T12:41:09.506Z,35.27
2019-03-27T12:43:41.635Z,34.17
2019-03-27T12:46:13.665Z,34.30
2019-03-27T12:48:45.905Z,39.60
2019-03-27T12:51:18.152Z,38.44
2019-03-27T12:53:50.124Z,38.85
2019-03-27T12:56:22.148Z,40.38
2019-03-27T12:58:54.347Z,41.72
2019-03-27T13:01:26.538Z,42.65
2019-03-27T13:03:58.663Z,42.65
2019-03-27T13:06:30.902Z,43.21
2019-03-27T13:09:03.574Z,44.71
2019-03-27T13:11:36.863Z,45.95
2019-03-27T13:14:09.323Z,45.94
2019-03-27T13:16:42.707Z,46.24
2019-03-27T13:19:14.903Z,46.14
2019-03-27T13:21:47.060Z,44.89
2019-03-27T13:24:19.009Z,45.66
2019-03-27T13:26:51.213Z,44.99
2019-03-27T13:29:23.402Z,46.42
2019-03-27T13:31:55.613Z,45.43
2019-03-27T13:34:27.636Z,45.33
2019-03-27T13:36:59.950Z,46.62
2019-03-27T13:39:31.821Z,46.79
2019-03-27T13:42:03.997Z,47.02
2019-03-27T13:44:37.483Z,47.67
2019-03-27T13:47:10.176Z,46.79
2019-03-27T13:49:42.567Z,47.71
2019-03-27T13:52:14.513Z,47.94
2019-03-27T13:54:46.609Z,48.24
2019-03-27T13:57:18.614Z,47.65
2019-03-27T13:59:51.065Z,48.73
2019-03-27T14:02:22.942Z,48.36
2019-03-27T14:04:54.998Z,48.62
2019-03-27T14:07:27.238Z,47.91
2019-03-27T14:09:59.323Z,48.01
2019-03-27T14:12:31.442Z,48.64
2019-03-27T14:15:03.648Z,48.78
2019-03-27T14:17:35.495Z,48.32
2019-03-27T14:20:08.546Z,48.63
2019-03-27T14:22:40.699Z,49.12
2019-03-27T14:25:13.142Z,49.21
2019-03-27T14:27:46.098Z,49.28
2019-03-27T14:30:38.893Z,50.11
2019-03-27T14:33:11.135Z,48.96
2019-03-27T14:35:43.145Z,50.08
2019-03-27T14:38:15.096Z,49.83
2019-03-27T14:40:47.105Z,50.50
2019-03-27T14:43:19.161Z,50.42
2019-03-27T14:45:51.828Z,50.55
2019-03-27T14:48:23.861Z,51.19
2019-03-27T14:50:57.148Z,52.09
2019-03-27T14:53:29.025Z,51.70
2019-03-27T14:56:00.857Z,51.82
2019-03-27T14:58:33.450Z,52.50
2019-03-27T15:01:05.969Z,52.78
2019-03-27T15:03:39.222Z,53.53
2019-03-27T15:06:12.117Z,54.04
2019-03-27T15:08:44.343Z,53.92
2019-03-27T15:11:16.377Z,54.30
2019-03-27T15:13:48.811Z,55.02
2019-03-27T15:16:20.865Z,55.37
2019-03-27T15:18:53.032Z,55.29
2019-03-27T15:21:25.222Z,55.44
2019-03-27T15:23:57.321Z,55.16
2019-03-27T15:26:30.823Z,55.50
2019-03-27T15:29:02.994Z,55.63
2019-03-27T15:31:34.979Z,55.28
2019-03-27T15:34:06.979Z,55.66
2019-03-27T15:36:39.100Z,56.24
2019-03-27T15:39:12.237Z,56.41
2019-03-27T15:41:44.634Z,55.96
2019-03-27T15:44:17.650Z,56.10
2019-03-27T15:46:49.551Z,55.61
2019-03-27T15:49:21.463Z,56.37
2019-03-27T15:51:53.633Z,56.44
2019-03-27T15:54:25.974Z,56.71
2019-03-27T15:56:58.316Z,56.43
2019-03-27T15:59:30.384Z,56.94
2019-03-27T16:02:02.823Z,56.91
2019-03-27T16:04:35.051Z,57.64
2019-03-27T16:07:07.526Z,57.53
2019-03-27T16:09:39.944Z,58.12
2019-03-27T16:12:12.229Z,58.47
2019-03-27T16:14:44.452Z,58.54
2019-03-27T16:17:16.579Z,58.55
2019-03-27T16:19:48.814Z,58.72
2019-03-27T16:22:21.148Z,58.88
2019-03-27T16:24:53.035Z,58.78
2019-03-27T16:27:25.476Z,59.15
2019-03-27T16:29:58.628Z,59.07
2019-03-27T16:32:30.506Z,59.14
2019-03-27T16:35:02.655Z,59.51
2019-03-27T16:37:34.731Z,59.39
2019-03-27T16:40:07.515Z,59.94
2019-03-27T16:42:41.347Z,59.72
2019-03-27T16:45:13.491Z,59.78
2019-03-27T16:47:45.470Z,60.15
2019-03-27T16:50:18.198Z,60.30
2019-03-27T16:53:02.994Z,60.41
2019-03-27T16:55:24.507Z,60.55
2019-03-27T16:57:56.854Z,61.06
2019-03-27T17:00:29.281Z,61.12
2019-03-27T17:03:01.479Z,61.14
2019-03-27T17:05:33.660Z,61.26
2019-03-27T17:08:05.850Z,61.55
2019-03-27T17:10:38.265Z,61.92
2019-03-27T17:13:10.382Z,61.62
2019-03-27T17:15:42.755Z,61.84
2019-03-27T17:18:14.954Z,62.20
2019-03-27T17:20:47.037Z,62.40
2019-03-27T17:23:18.901Z,62.43
2019-03-27T17:25:49.564Z,62.64
2019-03-27T17:28:20.902Z,62.80
2019-03-27T17:30:51.586Z,63.06
2019-03-27T17:33:23.353Z,63.55
2019-03-27T17:35:54.073Z,63.85
2019-03-27T17:38:25.306Z,64.00
2019-03-27T17:40:56.026Z,64.37
2019-03-27T17:43:26.469Z,64.44
2019-03-27T17:45:57.243Z,64.77
2019-03-27T17:48:27.609Z,64.71
2019-03-27T17:50:58.202Z,64.92
2019-03-27T17:53:31.977Z,64.94
2019-03-27T17:56:00.820Z,65.02
2019-03-27T17:58:31.794Z,65.39
2019-03-27T18:01:03.682Z,65.73
2019-03-27T18:03:34.181Z,66.84
2019-03-27T18:06:06.961Z,67.43
2019-03-27T18:08:37.782Z,67.61
2019-03-27T18:11:08.354Z,68.10
2019-03-27T18:13:38.915Z,68.16
2019-03-27T18:16:10.829Z,68.55
2019-03-27T18:18:42.880Z,68.86
2019-03-27T18:21:15.119Z,69.10
2019-03-27T18:23:47.568Z,69.13
2019-03-27T18:26:19.679Z,68.76
2019-03-27T18:28:52.122Z,68.74
2019-03-27T18:31:24.162Z,69.08
2019-03-27T18:33:56.438Z,69.27
2019-03-27T18:36:28.504Z,69.28
2019-03-27T18:39:00.873Z,69.29
2019-03-27T18:41:34.785Z,69.19
2019-03-27T18:44:06.920Z,69.16
2019-03-27T18:46:39.099Z,69.08
2019-03-27T18:49:12.155Z,69.19
2019-03-27T18:51:44.624Z,69.13
2019-03-27T18:54:16.779Z,69.31
2019-03-27T18:56:48.967Z,68.86
2019-03-27T18:59:20.914Z,69.04
2019-03-27T19:01:52.951Z,69.03
2019-03-27T19:04:25.357Z,69.28
2019-03-27T19:06:58.867Z,69.38
2019-03-27T19:09:29.807Z,69.46
2019-03-27T19:12:02.011Z,69.62
2019-03-27T19:14:35.256Z,69.44
2019-03-27T19:17:07.583Z,69.65
2019-03-27T19:19:40.281Z,69.95
2019-03-27T19:22:12.578Z,70.01
2019-03-27T19:24:44.595Z,70.23
2019-03-27T19:27:16.711Z,70.22
2019-03-27T19:29:49.007Z,70.23
2019-03-27T19:32:21.161Z,70.59
2019-03-27T19:34:54.421Z,70.62
2019-03-27T19:37:26.333Z,71.11
2019-03-27T19:39:56.891Z,71.30
2019-03-27T19:42:27.471Z,71.44
2019-03-27T19:44:58.103Z,71.61
2019-03-27T19:47:28.785Z,71.88
2019-03-27T19:49:59.104Z,72.07
2019-03-27T19:52:29.619Z,71.97
2019-03-27T19:55:00.635Z,72.29
2019-03-27T19:57:31.414Z,72.29
2019-03-27T20:00:01.889Z,72.27
2019-03-27T20:02:37.360Z,72.61
2019-03-27T20:05:08.479Z,72.87
2019-03-27T20:07:39.061Z,72.63
2019-03-27T20:10:11.049Z,72.67
2019-03-27T20:12:42.802Z,72.76
2019-03-27T20:15:13.735Z,72.77
2019-03-27T20:17:44.689Z,73.16
2019-03-27T20:20:15.521Z,73.55
2019-03-27T20:22:46.178Z,73.49
2019-03-27T20:25:16.869Z,73.49
2019-03-27T20:27:50.968Z,74.06
2019-03-27T20:30:21.246Z,73.97
2019-03-27T20:32:52.065Z,74.20
2019-03-27T20:35:23.034Z,74.70
2019-03-27T20:37:53.867Z,74.63
2019-03-27T20:40:27.511Z,74.70
2019-03-27T20:42:57.445Z,75.33
2019-03-27T20:45:28.277Z,75.94
2019-03-27T20:47:58.894Z,76.31
2019-03-27T20:50:29.533Z,77.15
2019-03-27T20:53:00.380Z,77.34
2019-03-27T20:55:31.232Z,77.85
2019-03-27T20:58:02.155Z,77.98
2019-03-27T21:00:33.377Z,79.13
2019-03-27T21:03:04.118Z,79.88
2019-03-27T21:05:35.173Z,80.48
2019-03-27T21:08:06.168Z,80.49
2019-03-27T21:10:36.848Z,80.64
2019-03-27T21:13:07.795Z,80.63
2019-03-27T21:15:39.286Z,81.02
2019-03-27T21:18:09.817Z,80.87
2019-03-27T21:20:40.508Z,80.66
2019-03-27T21:23:11.042Z,80.69
2019-03-27T21:25:43.869Z,80.66
2019-03-27T21:28:14.462Z,80.86
2019-03-27T21:30:45.201Z,81.17
2019-03-27T21:33:15.543Z,81.20
2019-03-27T21:35:46.100Z,81.13
2019-03-27T21:38:16.716Z,81.26
2019-03-27T21:40:48.734Z,81.23
2019-03-27T21:43:20.942Z,81.37
2019-03-27T21:45:53.336Z,81.43
2019-03-27T21:48:25.800Z,81.41
2019-03-27T21:50:57.838Z,81.42
2019-03-27T21:53:30.051Z,81.43
2019-03-27T21:56:01.899Z,81.54
2019-03-27T21:58:34.188Z,81.46
2019-03-27T22:01:06.952Z,81.35
2019-03-27T22:03:39.095Z,81.71
2019-03-27T22:06:11.370Z,81.49
2019-03-27T22:08:43.517Z,81.41
2019-03-27T22:11:15.649Z,81.33
2019-03-27T22:13:48.882Z,81.14
2019-03-27T22:16:20.978Z,81.14
2019-03-27T22:18:53.488Z,81.19
2019-03-27T22:21:26.995Z,81.34
2019-03-27T22:24:00.231Z,81.30
2019-03-27T22:26:32.581Z,81.10
2019-03-27T22:29:04.631Z,81.00
2019-03-27T22:31:36.965Z,81.10
2019-03-27T22:34:09.092Z,81.30
2019-03-27T22:36:40.021Z,81.43
2019-03-27T22:39:10.684Z,81.44
2019-03-27T22:41:41.263Z,81.55
2019-03-27T22:44:11.627Z,81.75
2019-03-27T22:46:42.285Z,81.80
2019-03-27T22:49:13.907Z,81.76
2019-03-27T22:51:44.556Z,81.89
2019-03-27T22:54:15.415Z,81.74
2019-03-27T22:56:46.929Z,81.95
2019-03-27T22:59:17.295Z,82.23
2019-03-27T23:01:47.924Z,82.45
2019-03-27T23:04:18.652Z,82.75
2019-03-27T23:06:49.489Z,83.08
2019-03-27T23:09:20.071Z,83.18
2019-03-27T23:11:50.688Z,83.45
2019-03-27T23:14:21.373Z,83.47
2019-03-27T23:16:51.992Z,83.66
2019-03-27T23:19:22.803Z,83.62
2019-03-27T23:21:54.996Z,83.87
2019-03-27T23:24:25.412Z,83.90
2019-03-27T23:26:57.670Z,83.97
2019-03-27T23:29:30.934Z,84.21
2019-03-27T23:32:03.307Z,84.36
2019-03-27T23:34:35.457Z,84.36
2019-03-27T23:37:08.044Z,84.52
2019-03-27T23:39:38.809Z,85.37
2019-03-27T23:42:09.381Z,85.58
2019-03-27T23:44:40.128Z,85.81
2019-03-27T23:47:10.700Z,85.90
2019-03-27T23:49:41.747Z,86.29
2019-03-27T23:52:12.384Z,85.77
2019-03-27T23:54:42.848Z,85.59
2019-03-27T23:57:14.746Z,85.67
2019-03-27T23:59:45.366Z,85.67
